Disclaimer

Please do not use the information listed here in-flight or in-navigation, as they are not provided to us by the airports but are provided by volunteers, so they might be outdated.

Search


Regions


Airport information page

Radio informations:
HANDLING - 130.75 MHz

Airport informations:
Latitude: 55° 31' 33.39" N
Longitude: 008° 33' 12.25" E
Elevation: 97 feet - 30 meters
Operating hours: Remarks
Operating agency: Civil government, landing fees and diplomatic clearance may be required
Timezone: UTC+1(+2DT) - Last Sunday in March to last Sunday in October
Fuel: Jet A1, without icing nhibitor.

100/130 MIL Spec, low lead, aviation gasoline (BLUE)

Runway information:
08/26 - 8527 x 148 feet< - >2599 x 45 meters

Recent METARs:
EKEB 171920Z AUTO 07004KT 5000NDV NCD 01/01 Q1038
EKEB 171950Z AUTO 09004KT 060V120 6000NDV NCD 02/01 Q1038
EKEB 172020Z AUTO 08004KT 4900NDV BR NCD 01/01 Q1038

Airport on the map: